Time;durP1;ratioP1;P1;durP2;ratioP2;P2;SDS_P1;SDS_P2;PMS_P1;PMS_P2;Temp;Humidity;BMP_temperature;BMP_pressure;BME280_temperature;BME280_humidity;BME280_pressure;Samples;Min_cycle;Max_cycle;Signal;HPM_P1;HPM_P2
2023/08/13 00:00:46;;;;;;;9.55;2.90;;;;;;;17.60;87.59;101691.47;6102717;19;20107;-69
2023/08/13 00:02:51;;;;;;;11.00;2.60;;;;;;;17.61;87.42;101692.31;6104400;19;20023;-69
2023/08/13 00:04:56;;;;;;;6.93;2.70;;;;;;;17.60;87.18;101683.50;6104347;19;20045;-69
2023/08/13 00:07:03;;;;;;;4.97;2.25;;;;;;;17.60;87.25;101680.84;6104870;19;20003;-69
2023/08/13 00:09:09;;;;;;;9.25;2.78;;;;;;;17.60;87.28;101682.66;6100028;19;20010;-69
2023/08/13 00:11:15;;;;;;;9.48;2.63;;;;;;;17.57;87.27;101688.16;6102152;19;20347;-70
2023/08/13 00:13:23;;;;;;;8.13;2.83;;;;;;;17.60;87.03;101687.97;6106200;19;20007;-69
2023/08/13 00:15:28;;;;;;;14.98;3.05;;;;;;;17.58;87.24;101684.53;6092588;19;20054;-69
2023/08/13 00:17:36;;;;;;;8.18;3.10;;;;;;;17.52;87.88;101683.94;6101615;19;20027;-70
2023/08/13 00:19:42;;;;;;;8.45;2.78;;;;;;;17.53;87.74;101687.44;6103247;19;20014;-69
2023/08/13 00:21:47;;;;;;;9.98;2.80;;;;;;;17.51;87.92;101678.72;6105084;19;20014;-69
2023/08/13 00:24:13;;;;;;;11.00;3.22;;;;;;;17.45;88.26;101682.56;6104463;19;20013;-68
2023/08/13 00:26:16;;;;;;;10.25;2.85;;;;;;;17.42;88.61;101690.69;6104749;19;20018;-68
2023/08/13 00:28:25;;;;;;;;;;;;;;;17.39;89.03;101682.91;6105458;19;20010;-68
2023/08/13 00:30:30;;;;;;;12.65;3.00;;;;;;;17.38;89.05;101683.84;6099184;19;20327;-67
2023/08/13 00:32:35;;;;;;;10.95;2.72;;;;;;;17.40;88.91;101681.94;6098606;19;20031;-67
2023/08/13 00:34:40;;;;;;;11.38;3.28;;;;;;;17.41;88.88;101669.53;6103716;19;20131;-70
2023/08/13 00:36:47;;;;;;;6.50;2.33;;;;;;;17.40;88.79;101671.31;6101974;19;20035;-68
2023/08/13 00:38:55;;;;;;;13.82;2.72;;;;;;;17.37;89.16;101674.16;6105721;19;20011;-69
2023/08/13 00:41:00;;;;;;;13.40;3.13;;;;;;;17.36;89.63;101672.44;6104728;19;20010;-69
2023/08/13 00:43:05;;;;;;;9.55;3.28;;;;;;;17.32;89.71;101679.75;6102439;19;20018;-69
2023/08/13 00:45:13;;;;;;;10.25;2.85;;;;;;;17.31;89.83;101677.16;6104371;19;20034;-69
2023/08/13 00:47:19;;;;;;;7.90;3.15;;;;;;;17.28;90.09;101683.50;6101881;19;20010;-69
2023/08/13 00:49:24;;;;;;;7.90;3.35;;;;;;;17.26;90.27;101681.88;6094094;19;20018;-69
2023/08/13 00:51:29;;;;;;;10.25;2.92;;;;;;;17.26;90.31;101679.22;6103912;19;20027;-70
2023/08/13 00:53:39;;;;;;;9.50;2.60;;;;;;;17.19;90.53;101672.50;6095800;19;20018;-69
2023/08/13 00:55:46;;;;;;;7.97;2.50;;;;;;;17.18;90.51;101679.63;6103866;19;20451;-68
2023/08/13 00:57:52;;;;;;;12.43;3.45;;;;;;;17.22;90.45;101678.53;6103580;19;20025;-68
2023/08/13 01:00:00;;;;;;;9.63;2.80;;;;;;;17.23;90.92;101679.38;6101072;19;20474;-69
2023/08/13 01:02:08;;;;;;;12.02;3.00;;;;;;;17.16;91.12;101678.84;6101370;19;20007;-68
2023/08/13 01:04:13;;;;;;;11.23;2.95;;;;;;;17.18;90.88;101686.75;6102857;19;20013;-69
2023/08/13 01:06:29;;;;;;;10.40;2.78;;;;;;;17.14;91.17;101677.22;6103079;19;20380;-69
2023/08/13 01:08:41;;;;;;;5.72;2.80;;;;;;;17.14;91.65;101682.53;6090135;19;20087;-69
2023/08/13 01:10:51;;;;;;;11.88;3.10;;;;;;;17.07;91.74;101676.72;6101778;19;20007;-69
2023/08/13 01:13:06;;;;;;;7.78;3.20;;;;;;;17.07;91.80;101682.88;6101692;19;20606;-69
2023/08/13 01:15:17;;;;;;;8.07;3.03;;;;;;;17.03;92.24;101694.59;6100175;19;20491;-69
2023/08/13 01:17:31;;;;;;;11.55;3.30;;;;;;;16.99;92.69;101692.22;6105398;19;20031;-69
2023/08/13 01:19:37;;;;;;;8.05;3.10;;;;;;;16.99;92.66;101689.56;6100896;19;20031;-69
2023/08/13 01:21:42;;;;;;;11.05;3.85;;;;;;;17.00;92.76;101684.13;6097148;19;20033;-68
2023/08/13 01:23:50;;;;;;;7.82;3.05;;;;;;;16.98;93.02;101680.75;6102250;19;20450;-68
2023/08/13 01:26:00;;;;;;;11.63;3.40;;;;;;;16.96;92.83;101692.38;6098340;19;20007;-68
2023/08/13 01:28:14;;;;;;;11.65;3.75;;;;;;;16.94;93.15;101676.53;6100868;19;20011;-68
2023/08/13 01:30:25;;;;;;;10.40;4.57;;;;;;;16.93;93.28;101680.13;6094574;19;20607;-68
2023/08/13 01:32:36;;;;;;;12.40;3.40;;;;;;;16.94;93.51;101684.47;6098537;19;20013;-69
2023/08/13 01:34:42;;;;;;;6.68;3.45;;;;;;;16.91;93.63;101694.41;6101228;19;20097;-68
2023/08/13 01:36:48;;;;;;;8.27;3.67;;;;;;;16.91;93.85;101695.28;6102386;19;20003;-69
2023/08/13 01:39:00;;;;;;;9.25;3.08;;;;;;;16.98;93.83;101688.69;6101440;19;20003;-68
2023/08/13 01:41:06;;;;;;;10.07;3.42;;;;;;;16.95;94.17;101688.00;6100899;19;20017;-68
2023/08/13 01:43:12;;;;;;;7.05;2.80;;;;;;;16.91;94.17;101687.31;6103355;19;20456;-68
2023/08/13 01:45:17;;;;;;;9.00;3.13;;;;;;;16.93;94.31;101680.13;6106689;19;20007;-69
2023/08/13 01:47:24;;;;;;;12.77;3.33;;;;;;;16.91;94.48;101673.19;6099531;19;20007;-70
2023/08/13 01:49:29;;;;;;;10.20;3.30;;;;;;;16.97;94.29;101683.47;6081978;19;20542;-70
2023/08/13 01:51:34;;;;;;;12.00;3.65;;;;;;;17.02;94.75;101686.72;6105262;19;20040;-69
2023/08/13 01:53:39;;;;;;;10.18;2.78;;;;;;;17.07;94.46;101685.53;6099468;19;20014;-69
2023/08/13 01:55:47;;;;;;;9.98;3.47;;;;;;;17.04;94.31;101683.03;6100619;19;20006;-69
2023/08/13 01:57:52;;;;;;;7.97;3.05;;;;;;;17.03;94.41;101678.66;6103302;19;20006;-69
2023/08/13 01:59:57;;;;;;;9.15;3.83;;;;;;;17.00;94.67;101680.63;6100629;19;20018;-68
2023/08/13 02:02:02;;;;;;;9.75;3.47;;;;;;;17.02;95.05;101681.41;6101522;19;20247;-69
2023/08/13 02:04:08;;;;;;;6.25;2.67;;;;;;;17.07;94.94;101672.25;6101501;19;20043;-70
2023/08/13 02:06:13;;;;;;;10.90;3.05;;;;;;;17.09;94.55;101674.84;6097216;19;20352;-68
2023/08/13 02:08:18;;;;;;;7.20;3.22;;;;;;;17.13;94.71;101672.88;6100293;19;20042;-68
2023/08/13 02:10:23;;;;;;;9.52;3.20;;;;;;;17.12;94.83;101664.03;6101516;19;20395;-68
2023/08/13 02:12:31;;;;;;;7.95;2.92;;;;;;;17.06;95.35;101672.31;6097694;19;20459;-70
2023/08/13 02:14:36;;;;;;;10.63;2.85;;;;;;;17.09;94.89;101673.03;6102516;19;20066;-69
2023/08/13 02:16:42;;;;;;;8.27;2.97;;;;;;;17.08;94.98;101668.66;6104232;19;20089;-70
2023/08/13 02:18:47;;;;;;;7.25;2.83;;;;;;;17.06;94.81;101678.53;6105120;19;20038;-67
2023/08/13 02:20:55;;;;;;;7.93;3.22;;;;;;;17.09;95.13;101669.53;6105502;19;20428;-67
2023/08/13 02:23:00;;;;;;;10.45;2.70;;;;;;;17.15;94.91;101673.66;6099180;19;20007;-67
2023/08/13 02:25:03;;;;;;;10.60;3.20;;;;;;;17.15;95.14;101677.16;6102757;19;20034;-68
2023/08/13 02:27:08;;;;;;;9.23;2.92;;;;;;;17.16;95.04;101680.66;6100164;19;20618;-67
2023/08/13 02:29:16;;;;;;;6.93;2.65;;;;;;;17.19;94.77;101672.50;6102658;19;20459;-68
2023/08/13 02:31:21;;;;;;;10.43;3.38;;;;;;;17.16;95.01;101678.00;6102728;19;20008;-68
2023/08/13 02:33:26;;;;;;;11.02;3.65;;;;;;;17.18;94.61;101660.19;6101161;19;20524;-67
2023/08/13 02:35:32;;;;;;;7.70;2.90;;;;;;;17.15;94.59;101671.84;6101458;19;21473;-67
2023/08/13 02:37:38;;;;;;;8.23;2.95;;;;;;;17.10;94.88;101668.56;6098744;19;20015;-67
2023/08/13 02:39:43;;;;;;;10.60;3.05;;;;;;;17.09;94.45;101665.06;6104005;19;20471;-67
2023/08/13 02:41:48;;;;;;;11.23;3.53;;;;;;;17.07;94.59;101669.59;6098835;19;20011;-68
2023/08/13 02:43:54;;;;;;;8.48;3.33;;;;;;;17.16;94.14;101670.03;6089858;19;20028;-67
2023/08/13 02:46:02;;;;;;;9.48;2.72;;;;;;;17.10;94.24;101664.13;6101217;19;20012;-69
2023/08/13 02:48:08;;;;;;;6.88;3.30;;;;;;;17.05;94.54;101665.31;6100713;19;20010;-69
2023/08/13 02:50:13;;;;;;;10.10;3.45;;;;;;;17.03;94.68;101662.72;6099528;19;20010;-69
2023/08/13 02:52:19;;;;;;;7.03;2.83;;;;;;;16.97;95.05;101670.19;6093225;19;20044;-69
2023/08/13 02:54:24;;;;;;;5.47;2.30;;;;;;;16.95;94.91;101651.66;6099981;19;20081;-67
2023/08/13 02:56:29;;;;;;;9.68;2.67;;;;;;;16.93;95.41;101665.97;6101562;19;20578;-67
2023/08/13 02:58:34;;;;;;;10.70;2.67;;;;;;;16.88;95.05;101661.78;6098715;19;20014;-67
2023/08/13 03:00:40;;;;;;;8.57;3.05;;;;;;;16.84;95.35;101662.03;6093833;19;20006;-69
2023/08/13 03:02:48;;;;;;;7.43;2.72;;;;;;;16.83;95.83;101665.63;6100313;19;20003;-68
2023/08/13 03:04:54;;;;;;;9.75;2.80;;;;;;;16.76;95.95;101673.00;6100687;19;20365;-68
2023/08/13 03:07:00;;;;;;;8.55;2.67;;;;;;;16.78;96.18;101668.53;6099427;19;20006;-69
2023/08/13 03:09:05;;;;;;;11.45;3.03;;;;;;;16.80;96.00;101673.75;6100765;19;20002;-68
2023/08/13 03:11:10;;;;;;;10.05;3.22;;;;;;;16.80;96.10;101661.34;6090178;19;20462;-69
2023/08/13 03:13:15;;;;;;;10.43;3.08;;;;;;;16.79;96.27;101666.72;6096849;19;20025;-69
2023/08/13 03:15:18;;;;;;;5.20;3.13;;;;;;;16.79;96.15;101664.91;6097333;19;20013;-69
2023/08/13 03:17:23;;;;;;;9.73;3.10;;;;;;;16.82;96.19;101671.84;6093830;19;20482;-66
2023/08/13 03:19:30;;;;;;;10.10;2.88;;;;;;;16.80;96.23;101673.75;6096600;19;20010;-68
2023/08/13 03:21:33;;;;;;;10.18;3.67;;;;;;;16.78;96.30;101667.66;6098566;19;20010;-68
2023/08/13 03:23:37;;;;;;;10.07;3.00;;;;;;;16.76;96.23;101670.34;6098411;19;20011;-68
2023/08/13 03:25:42;;;;;;;7.90;3.08;;;;;;;16.78;96.09;101668.53;6097933;19;20010;-68
2023/08/13 03:27:48;;;;;;;7.68;2.53;;;;;;;16.77;96.26;101663.25;6097525;19;19999;-68
2023/08/13 03:29:55;;;;;;;8.48;2.85;;;;;;;16.76;96.16;101666.84;6096549;19;20007;-68
2023/08/13 03:32:00;;;;;;;6.88;2.65;;;;;;;16.76;95.98;101664.19;6095929;19;20042;-68
2023/08/13 03:34:09;;;;;;;7.65;3.00;;;;;;;16.75;96.40;101652.72;6089493;19;20011;-68
2023/08/13 03:36:16;;;;;;;8.20;2.80;;;;;;;16.71;96.36;101656.47;6098025;19;20227;-68
2023/08/13 03:38:21;;;;;;;10.65;3.45;;;;;;;16.66;96.82;101656.72;6097930;19;20035;-69
2023/08/13 03:40:26;;;;;;;10.45;3.15;;;;;;;16.61;97.15;101650.81;6096832;19;20009;-69
2023/08/13 03:42:32;;;;;;;7.13;2.05;;;;;;;16.62;97.39;101649.00;6097040;19;20015;-69
2023/08/13 03:44:37;;;;;;;8.77;3.10;;;;;;;16.60;97.16;101653.53;6097994;19;20050;-69
2023/08/13 03:46:40;;;;;;;7.97;2.60;;;;;;;16.53;97.79;101653.00;6098048;19;20007;-69
2023/08/13 03:48:48;;;;;;;12.93;2.65;;;;;;;16.51;98.17;101649.59;6098138;19;20010;-69
2023/08/13 03:50:53;;;;;;;9.73;3.92;;;;;;;16.51;98.13;101649.59;6095639;19;20114;-69
2023/08/13 03:53:01;;;;;;;8.05;3.28;;;;;;;16.41;98.33;101657.16;6089883;19;20050;-69
2023/08/13 03:55:07;;;;;;;10.70;2.55;;;;;;;16.43;98.74;101659.75;6095634;19;20010;-67
2023/08/13 03:57:12;;;;;;;6.03;2.63;;;;;;;16.42;98.92;101663.31;6095190;19;20033;-67
2023/08/13 03:59:17;;;;;;;7.53;2.65;;;;;;;16.40;99.53;101659.88;6095305;19;20003;-67
2023/08/13 04:01:25;;;;;;;12.45;3.15;;;;;;;16.37;99.41;101668.84;6096877;19;20074;-67
2023/08/13 04:03:27;;;;;;;9.73;3.05;;;;;;;16.37;100.00;101673.31;6096216;19;20007;-68
2023/08/13 04:05:33;;;;;;;10.65;3.55;;;;;;;16.34;100.00;101676.13;6097095;19;20518;-68
2023/08/13 04:07:38;;;;;;;11.73;3.55;;;;;;;16.37;100.00;101674.16;6097637;19;20014;-67
2023/08/13 04:09:45;;;;;;;8.20;3.30;;;;;;;16.38;100.00;101675.03;6083635;19;20029;-67
2023/08/13 04:11:50;;;;;;;9.00;3.08;;;;;;;16.33;100.00;101674.41;6096056;19;20617;-67
2023/08/13 04:13:55;;;;;;;7.82;3.10;;;;;;;16.35;100.00;101678.69;6094768;19;20502;-68
2023/08/13 04:16:00;;;;;;;8.68;3.47;;;;;;;16.30;100.00;101671.88;6098101;19;20466;-67
2023/08/13 04:18:06;;;;;;;5.25;2.85;;;;;;;16.29;100.00;101675.50;6096862;19;20585;-69
2023/08/13 04:20:13;;;;;;;10.73;2.80;;;;;;;16.33;100.00;101677.06;6095196;19;20376;-67
2023/08/13 04:22:18;;;;;;;6.95;2.83;;;;;;;16.26;100.00;101676.50;6094548;19;20793;-67
2023/08/13 04:24:26;;;;;;;8.35;3.10;;;;;;;16.27;100.00;101680.00;6098053;19;20498;-68
2023/08/13 04:26:33;;;;;;;11.40;3.17;;;;;;;16.30;100.00;101677.19;6089851;19;20007;-69
2023/08/13 04:28:38;;;;;;;11.35;2.97;;;;;;;16.35;100.00;101678.69;6095716;19;20010;-69
2023/08/13 04:30:43;;;;;;;13.07;3.47;;;;;;;16.32;100.00;101683.28;6094019;19;20062;-68
2023/08/13 04:32:53;;;;;;;12.52;4.03;;;;;;;16.34;100.00;101687.56;6095588;19;20091;-67
2023/08/13 04:34:58;;;;;;;9.25;2.75;;;;;;;16.42;100.00;101688.03;6097992;19;20006;-67
2023/08/13 04:37:03;;;;;;;6.50;2.75;;;;;;;16.42;100.00;101693.34;6100060;19;20510;-67
2023/08/13 04:39:08;;;;;;;8.52;2.53;;;;;;;16.42;100.00;101696.00;6104217;19;20352;-67
2023/08/13 04:41:13;;;;;;;9.15;2.80;;;;;;;16.43;100.00;101694.22;6096788;19;20045;-69
2023/08/13 04:43:21;;;;;;;7.88;2.53;;;;;;;16.44;100.00;101698.59;6103839;19;20034;-70
2023/08/13 04:45:26;;;;;;;9.73;3.05;;;;;;;16.46;100.00;101694.06;6100729;19;20023;-70
2023/08/13 04:47:32;;;;;;;6.60;2.53;;;;;;;16.46;100.00;101686.97;6097625;19;20776;-70
2023/08/13 04:49:37;;;;;;;11.32;3.97;;;;;;;16.49;100.00;101693.06;6102268;19;20013;-71
2023/08/13 04:51:42;;;;;;;10.00;3.10;;;;;;;16.46;100.00;101700.22;6103456;19;20015;-70
2023/08/13 04:53:48;;;;;;;9.70;3.20;;;;;;;16.51;100.00;101696.47;6100150;19;20007;-70
2023/08/13 04:55:52;;;;;;;6.40;2.92;;;;;;;16.53;100.00;101700.75;6101660;19;20019;-70
2023/08/13 04:57:58;;;;;;;11.05;3.22;;;;;;;16.55;100.00;101692.72;6100114;19;20667;-69
2023/08/13 05:00:08;;;;;;;11.95;3.25;;;;;;;16.56;100.00;101700.63;6101787;19;20042;-70
2023/08/13 05:02:13;;;;;;;10.57;3.13;;;;;;;16.50;100.00;101700.91;6100457;19;20010;-70
2023/08/13 05:04:19;;;;;;;11.68;2.80;;;;;;;16.53;100.00;101702.56;6097099;19;20391;-69
2023/08/13 05:06:24;;;;;;;12.02;2.83;;;;;;;16.48;99.82;101700.13;6101499;19;20058;-70
2023/08/13 05:08:29;;;;;;;9.68;2.65;;;;;;;16.49;100.00;101699.22;6101229;19;20018;-69
2023/08/13 05:10:35;;;;;;;10.88;3.20;;;;;;;16.48;100.00;101694.81;6103120;19;20403;-69
2023/08/13 05:12:40;;;;;;;10.82;2.75;;;;;;;16.51;100.00;101699.09;6092147;19;20105;-70
2023/08/13 05:14:46;;;;;;;9.93;2.60;;;;;;;16.47;100.00;101693.13;6104084;19;20011;-70
2023/08/13 05:16:54;;;;;;;10.10;3.47;;;;;;;16.47;100.00;101698.41;6102756;19;20006;-70
2023/08/13 05:18:59;;;;;;;8.50;2.67;;;;;;;16.45;100.00;101692.31;6098393;19;20006;-70
2023/08/13 05:21:05;;;;;;;10.02;2.80;;;;;;;16.45;100.00;101687.03;6100934;19;20046;-70
2023/08/13 05:23:11;;;;;;;5.65;2.50;;;;;;;16.50;100.00;101692.09;6105438;19;20007;-69
2023/08/13 05:25:16;;;;;;;13.35;3.03;;;;;;;16.49;100.00;101677.97;6095111;19;20027;-66
2023/08/13 05:27:21;;;;;;;8.13;2.85;;;;;;;16.55;100.00;101688.25;6096572;19;20168;-67
2023/08/13 05:29:29;;;;;;;9.93;2.70;;;;;;;16.68;100.00;101686.69;6102330;19;20467;-68
2023/08/13 05:31:42;;;;;;;7.90;2.90;;;;;;;16.75;99.86;101689.03;6099892;19;20015;-69
2023/08/13 05:33:57;;;;;;;7.82;2.45;;;;;;;16.83;99.93;101692.16;6099622;19;20479;-69
2023/08/13 05:36:00;;;;;;;9.15;2.80;;;;;;;17.04;99.23;101688.38;6095739;19;20021;-69
2023/08/13 05:38:05;;;;;;;;;;;;;;;17.24;98.58;101687.25;6100130;19;20010;-66
2023/08/13 05:40:11;;;;;;;7.40;2.63;;;;;;;17.40;96.57;101683.75;6101694;19;19907;-69
2023/08/13 05:42:17;;;;;;;10.50;3.05;;;;;;;17.54;96.18;101684.72;6103145;19;20112;-70
2023/08/13 05:44:25;;;;;;;10.88;3.22;;;;;;;17.73;95.47;101681.00;6098387;19;20023;-69
2023/08/13 05:46:30;;;;;;;10.70;2.80;;;;;;;17.93;94.23;101679.88;6103100;19;20769;-69
2023/08/13 05:48:35;;;;;;;9.18;3.25;;;;;;;18.12;92.59;101675.22;6099282;19;20009;-69
2023/08/13 05:50:43;;;;;;;7.60;3.40;;;;;;;18.39;91.85;101674.50;6099768;19;20024;-68
2023/08/13 05:52:48;;;;;;;8.60;2.83;;;;;;;18.41;89.70;101678.78;6099518;19;20022;-68
2023/08/13 05:54:53;;;;;;;9.10;3.40;;;;;;;18.77;89.92;101689.97;6096586;19;20088;-69
2023/08/13 05:57:00;;;;;;;8.18;2.90;;;;;;;18.76;88.67;101685.63;6097526;19;20039;-67
2023/08/13 05:59:06;;;;;;;8.85;2.97;;;;;;;18.91;87.74;101683.81;6100190;19;20438;-68
2023/08/13 06:01:11;;;;;;;7.80;2.25;;;;;;;19.11;86.63;101693.22;6098410;19;20007;-67
2023/08/13 06:03:16;;;;;;;10.68;2.92;;;;;;;19.22;86.43;101688.94;6095906;19;20010;-68
2023/08/13 06:05:21;;;;;;;6.57;2.58;;;;;;;19.17;86.83;101695.47;6100219;19;20225;-69
2023/08/13 06:07:29;;;;;;;7.03;2.70;;;;;;;18.81;86.76;101694.19;6096762;19;20006;-71
2023/08/13 06:09:36;;;;;;;7.30;2.58;;;;;;;18.87;87.98;101696.47;6098665;19;20015;-70
2023/08/13 06:11:41;;;;;;;9.82;2.63;;;;;;;18.64;87.91;101696.03;6099808;19;20014;-67
2023/08/13 06:13:46;;;;;;;6.18;2.22;;;;;;;18.56;88.38;101690.34;6091649;19;20031;-69
2023/08/13 06:15:51;;;;;;;10.50;3.00;;;;;;;18.95;86.90;101695.97;6099966;19;20083;-67
2023/08/13 06:17:56;;;;;;;7.15;2.40;;;;;;;18.78;86.87;101697.88;6099990;19;20389;-67
2023/08/13 06:20:03;;;;;;;8.98;3.20;;;;;;;18.74;87.97;101692.81;6098574;19;20006;-67
2023/08/13 06:22:08;;;;;;;6.10;2.53;;;;;;;18.60;88.38;101691.00;6102205;19;20006;-69
2023/08/13 06:24:16;;;;;;;7.50;2.35;;;;;;;18.85;87.88;101691.25;6098763;19;20074;-67
2023/08/13 06:26:21;;;;;;;8.07;3.13;;;;;;;18.90;87.83;101690.09;6097140;19;20006;-68
2023/08/13 06:28:26;;;;;;;8.50;2.45;;;;;;;18.86;87.29;101687.63;6098697;19;20035;-68
2023/08/13 06:30:31;;;;;;;7.35;2.58;;;;;;;18.94;87.64;101687.16;6092821;19;20043;-69
2023/08/13 06:32:37;;;;;;;7.65;2.72;;;;;;;19.18;86.34;101689.22;6096205;19;20109;-69
2023/08/13 06:34:42;;;;;;;6.15;2.25;;;;;;;19.52;84.81;101690.59;6096769;19;20010;-69
2023/08/13 06:36:47;;;;;;;8.07;3.03;;;;;;;19.45;83.74;101689.25;6098924;19;20006;-67
2023/08/13 06:38:52;;;;;;;7.20;2.70;;;;;;;19.69;83.68;101684.19;6101698;19;20054;-68
2023/08/13 06:41:06;;;;;;;4.57;2.17;;;;;;;19.57;83.60;101687.63;6099229;19;20097;-68
2023/08/13 06:43:12;;;;;;;6.97;2.63;;;;;;;19.39;83.89;101692.34;6102126;19;20014;-68
2023/08/13 06:45:19;;;;;;;7.72;1.98;;;;;;;19.57;84.55;101700.97;6095730;19;20011;-68
2023/08/13 06:47:24;;;;;;;7.18;2.60;;;;;;;19.64;83.88;101686.25;6093869;19;20074;-68
2023/08/13 06:49:29;;;;;;;6.50;2.22;;;;;;;19.48;83.52;101695.28;6097954;19;20025;-68
2023/08/13 06:51:34;;;;;;;8.52;3.03;;;;;;;19.49;83.97;101704.97;6097822;19;20514;-68
2023/08/13 06:53:40;;;;;;;7.45;2.28;;;;;;;19.30;84.02;101694.63;6093830;19;20539;-69
2023/08/13 06:55:48;;;;;;;7.03;2.15;;;;;;;19.53;83.44;101702.94;6085692;19;20017;-68
2023/08/13 06:57:58;;;;;;;8.60;2.30;;;;;;;19.61;83.25;101692.66;6099248;19;20382;-69
2023/08/13 07:00:05;;;;;;;6.80;2.13;;;;;;;20.00;81.78;101700.84;6096941;19;20002;-68
2023/08/13 07:02:10;;;;;;;9.60;2.88;;;;;;;19.88;81.44;101694.47;6099305;19;20006;-68
2023/08/13 07:04:15;;;;;;;7.70;3.05;;;;;;;19.76;80.71;101696.16;6095628;19;20501;-69
2023/08/13 07:06:21;;;;;;;5.20;2.30;;;;;;;19.83;81.24;101688.63;6096210;19;20013;-69
2023/08/13 07:08:26;;;;;;;7.13;2.42;;;;;;;19.73;80.09;101694.56;6099188;19;20358;-69
2023/08/13 07:10:34;;;;;;;4.43;1.92;;;;;;;19.88;80.02;101691.81;6097764;19;20006;-69
2023/08/13 07:12:40;;;;;;;5.57;2.40;;;;;;;19.95;78.52;101699.31;6095406;19;20003;-69
2023/08/13 07:14:47;;;;;;;8.35;2.25;;;;;;;20.03;78.22;101698.81;6096126;19;20023;-68
2023/08/13 07:16:55;;;;;;;6.93;2.40;;;;;;;19.71;79.19;101691.13;6094627;19;20353;-67
2023/08/13 07:19:01;;;;;;;9.07;3.10;;;;;;;19.95;79.41;101695.78;6097959;19;20002;-68
2023/08/13 07:21:06;;;;;;;6.63;2.58;;;;;;;19.97;78.31;101696.56;6096901;19;21266;-68
2023/08/13 07:23:11;;;;;;;6.40;2.20;;;;;;;20.03;78.37;101696.13;6092080;19;20006;-68
2023/08/13 07:25:14;;;;;;;6.93;2.03;;;;;;;20.07;77.91;101702.16;6080644;19;20018;-68
2023/08/13 07:27:22;;;;;;;5.60;2.15;;;;;;;20.22;76.79;101701.13;6100500;19;20405;-68
2023/08/13 07:29:34;;;;;;;6.57;2.30;;;;;;;20.46;76.04;101697.72;6097629;19;20014;-70
2023/08/13 07:31:44;;;;;;;5.93;2.00;;;;;;;20.33;75.94;101711.06;6092321;19;20003;-68
2023/08/13 07:33:51;;;;;;;6.28;1.88;;;;;;;20.34;76.17;101708.28;6095752;19;20015;-68
2023/08/13 07:35:57;;;;;;;6.93;2.00;;;;;;;20.37;76.56;101704.53;6097596;19;20010;-68
2023/08/13 07:38:05;;;;;;;7.72;2.08;;;;;;;20.47;76.44;101694.09;6099273;19;20006;-67
2023/08/13 07:40:16;;;;;;;2.95;2.00;;;;;;;20.48;76.73;101698.47;6098369;19;20009;-68
2023/08/13 07:42:18;;;;;;;4.15;1.85;;;;;;;20.61;75.77;101708.22;6099336;19;20139;-69
2023/08/13 07:44:26;;;;;;;6.97;1.95;;;;;;;20.67;74.77;101698.97;6097377;19;20060;-68
2023/08/13 07:46:32;;;;;;;8.65;2.00;;;;;;;20.86;72.86;101701.19;6099371;19;20642;-70
2023/08/13 07:48:39;;;;;;;8.52;2.10;;;;;;;21.37;72.90;101694.91;6090029;19;20038;-70
2023/08/13 07:50:47;;;;;;;6.18;2.40;;;;;;;21.58;72.01;101700.53;6085403;19;20011;-70
2023/08/13 07:52:53;;;;;;;3.90;2.08;;;;;;;21.35;70.76;101704.84;6093508;19;20104;-68
2023/08/13 07:54:58;;;;;;;6.30;1.83;;;;;;;21.08;71.20;101705.00;6097757;19;20483;-69
2023/08/13 07:57:05;;;;;;;4.53;1.70;;;;;;;21.37;71.68;101700.25;6087877;19;20007;-69
2023/08/13 07:59:10;;;;;;;4.40;1.63;;;;;;;21.57;70.05;101697.03;6093813;19;20486;-68
2023/08/13 08:01:16;;;;;;;3.22;1.70;;;;;;;21.48;69.65;101693.22;6094502;19;20388;-69
2023/08/13 08:03:22;;;;;;;7.45;1.80;;;;;;;21.27;70.15;101700.94;6092716;19;20483;-68
2023/08/13 08:05:31;;;;;;;4.60;1.58;;;;;;;21.34;70.41;101706.66;6096185;19;20045;-68
2023/08/13 08:07:36;;;;;;;5.90;1.88;;;;;;;21.31;69.48;101706.91;6088180;19;20495;-69
2023/08/13 08:09:41;;;;;;;2.30;1.55;;;;;;;21.04;69.56;101709.75;6092437;19;20392;-68
2023/08/13 08:11:46;;;;;;;4.53;1.65;;;;;;;21.20;69.85;101705.00;6101408;19;20074;-68
2023/08/13 08:13:51;;;;;;;4.40;1.52;;;;;;;21.12;69.83;101710.03;6106494;19;20023;-68
2023/08/13 08:15:59;;;;;;;4.32;1.73;;;;;;;20.94;70.16;101717.53;6100121;19;20495;-68
2023/08/13 08:18:04;;;;;;;6.22;2.28;;;;;;;20.95;70.27;101716.56;6081077;19;20051;-68
2023/08/13 08:20:10;;;;;;;5.15;2.00;;;;;;;20.88;70.64;101715.31;6100397;19;20011;-69
2023/08/13 08:22:18;;;;;;;8.68;2.25;;;;;;;20.74;71.18;101713.56;6099420;19;20419;-69
2023/08/13 08:24:23;;;;;;;3.83;1.63;;;;;;;20.99;69.71;101712.72;6101649;19;20494;-69
2023/08/13 08:26:29;;;;;;;4.93;1.80;;;;;;;21.21;69.96;101701.34;6102349;19;20419;-68
2023/08/13 08:28:40;;;;;;;5.90;1.98;;;;;;;21.07;68.59;101703.31;6103058;19;20010;-69
2023/08/13 08:30:47;;;;;;;4.18;1.58;;;;;;;21.28;68.54;101709.81;6098808;19;20014;-69
2023/08/13 08:32:55;;;;;;;5.13;1.98;;;;;;;21.03;68.40;101702.66;6099115;19;20349;-70
2023/08/13 08:35:03;;;;;;;4.75;1.60;;;;;;;20.83;69.00;101701.41;6103858;19;20475;-70
2023/08/13 08:37:10;;;;;;;6.70;1.80;;;;;;;20.89;69.95;101700.13;6104391;19;20014;-67
2023/08/13 08:39:21;;;;;;;3.60;1.50;;;;;;;20.82;70.48;101702.34;6078132;19;20018;-69
2023/08/13 08:41:32;;;;;;;4.13;1.45;;;;;;;20.89;70.43;101698.31;6101297;19;20019;-68
2023/08/13 08:44:08;;;;;;;5.30;2.13;;;;;;;20.58;70.51;101699.59;6095428;19;20007;-69
2023/08/13 08:46:20;;;;;;;4.13;1.65;;;;;;;20.68;70.70;101698.00;6102382;19;19999;-68
2023/08/13 08:48:27;;;;;;;3.17;2.10;;;;;;;20.59;71.15;101702.16;6102218;19;20010;-68
2023/08/13 08:50:33;;;;;;;4.10;1.70;;;;;;;20.75;71.68;101704.63;6098771;19;20691;-70
2023/08/13 08:52:42;;;;;;;4.30;1.83;;;;;;;20.82;71.86;101699.69;6082708;19;20021;-69
2023/08/13 08:54:53;;;;;;;3.53;1.20;;;;;;;20.83;71.83;101704.09;6093964;19;20094;-68
2023/08/13 08:57:04;;;;;;;3.00;1.53;;;;;;;20.87;70.45;101702.03;6101167;19;20458;-68
2023/08/13 08:59:09;;;;;;;6.45;1.90;;;;;;;20.85;71.76;101699.47;6108024;19;20009;-69
2023/08/13 09:01:14;;;;;;;5.07;2.47;;;;;;;20.96;70.62;101702.25;6087115;19;20027;-67
2023/08/13 09:03:19;;;;;;;7.18;2.97;;;;;;;21.09;71.41;101696.03;6105912;19;20380;-68
2023/08/13 09:05:25;;;;;;;9.98;2.67;;;;;;;21.30;71.75;101697.19;6049832;19;20023;-69
2023/08/13 09:07:38;;;;;;;7.38;2.40;;;;;;;21.15;72.89;101696.47;6092287;19;20418;-68
2023/08/13 09:09:46;;;;;;;6.32;1.98;;;;;;;21.09;73.43;101696.03;6103599;19;20011;-68
2023/08/13 09:11:58;;;;;;;6.80;2.35;;;;;;;21.15;73.08;101695.59;6099477;19;20039;-68
2023/08/13 09:14:05;;;;;;;5.47;2.10;;;;;;;21.42;72.29;101700.81;6099270;19;20014;-69
2023/08/13 09:16:13;;;;;;;4.53;1.80;;;;;;;21.27;72.64;101697.38;6104234;19;20021;-68
2023/08/13 09:18:19;;;;;;;4.15;1.95;;;;;;;21.66;70.98;101679.44;6098784;19;20010;-68
2023/08/13 09:20:34;;;;;;;6.32;2.35;;;;;;;21.82;70.17;101676.47;6093978;19;20006;-68
2023/08/13 09:22:40;;;;;;;4.90;2.03;;;;;;;21.76;70.31;101672.44;6079513;19;20010;-70
2023/08/13 09:24:48;;;;;;;4.82;1.90;;;;;;;21.61;70.03;101697.63;6096768;19;20003;-69
2023/08/13 09:26:56;;;;;;;2.83;1.45;;;;;;;21.33;69.68;101688.06;6092657;19;20370;-69
2023/08/13 09:29:08;;;;;;;9.15;2.30;;;;;;;21.68;69.91;101682.84;6087411;19;20010;-67
2023/08/13 09:31:13;;;;;;;3.78;1.65;;;;;;;21.57;67.95;101677.44;6096126;19;20035;-67
2023/08/13 09:33:32;;;;;;;8.05;1.92;;;;;;;22.01;67.62;101668.78;6099084;19;20024;-69
2023/08/13 09:35:44;;;;;;;5.63;1.75;;;;;;;22.74;66.19;101654.19;6100491;19;20526;-70
2023/08/13 09:37:49;;;;;;;9.85;4.10;;;;;;;22.97;64.50;101665.81;6105940;19;20514;-68
2023/08/13 09:39:59;;;;;;;7.88;2.53;;;;;;;22.75;64.25;101663.97;6107229;19;20050;-68
2023/08/13 09:42:12;;;;;;;2.42;1.30;;;;;;;22.27;65.75;101657.91;6102687;19;20022;-69
2023/08/13 09:44:25;;;;;;;6.50;1.90;;;;;;;22.28;66.10;101660.47;6008149;19;20021;-69
2023/08/13 09:46:34;;;;;;;3.40;1.60;;;;;;;22.38;65.56;101657.09;6107096;19;20014;-67